Time;durP1;ratioP1;P1;durP2;ratioP2;P2;SDS_P1;SDS_P2;PMS_P1;PMS_P2;Temp;Humidity;BMP_temperature;BMP_pressure;BME280_temperature;BME280_humidity;BME280_pressure;Samples;Min_cycle;Max_cycle;Signal;HPM_P1;HPM_P2
2023/06/22 00:00:44;;;;;;;;;;;25.50;96.00;;;;;;5115141;28;19993;-66
2023/06/22 00:03:10;;;;;;;;;;;25.50;96.20;;;;;;5113989;28;19984;-63
2023/06/22 00:05:35;;;;;;;;;;;25.50;96.40;;;;;;5115134;28;19985;-65
2023/06/22 00:08:04;;;;;;;;;;;25.30;97.00;;;;;;5114848;28;19992;-63
2023/06/22 00:10:30;;;;;;;;;;;25.20;97.60;;;;;;5114883;28;20033;-63
2023/06/22 00:12:55;;;;;;;;;;;25.10;97.90;;;;;;5114910;28;19985;-63
2023/06/22 00:15:21;;;;;;;;;;;24.90;98.10;;;;;;5114955;28;19985;-65
2023/06/22 00:17:47;;;;;;;;;;;25.00;98.40;;;;;;5114771;28;20019;-63
2023/06/22 00:20:14;;;;;;;;;;;24.90;98.80;;;;;;5114719;28;19985;-65
2023/06/22 00:22:39;;;;;;;;;;;24.90;99.10;;;;;;5114641;28;20465;-64
2023/06/22 00:25:06;;;;;;;;;;;24.80;99.20;;;;;;5114719;28;19984;-63
2023/06/22 00:27:32;;;;;;;;;;;24.90;99.30;;;;;;5114520;28;20008;-63
2023/06/22 00:29:58;;;;;;;;;;;24.90;99.40;;;;;;5114689;28;19985;-64
2023/06/22 00:32:23;;;;;;;;;;;24.80;99.50;;;;;;5114575;28;20026;-63
2023/06/22 00:34:50;;;;;;;;;;;24.70;99.80;;;;;;5114402;28;20062;-64
2023/06/22 00:37:15;;;;;;;;;;;24.60;99.90;;;;;;5114379;28;19985;-65
2023/06/22 00:39:41;;;;;;;;;;;24.60;99.90;;;;;;5114460;28;19984;-63
2023/06/22 00:42:07;;;;;;;;;;;24.70;99.90;;;;;;5114389;28;20480;-64
2023/06/22 00:44:32;;;;;;;;;;;24.70;99.90;;;;;;5114480;28;20447;-65
2023/06/22 00:47:00;;;;;;;;;;;24.70;99.90;;;;;;5114397;28;20537;-64
2023/06/22 00:49:25;;;;;;;;;;;24.70;99.90;;;;;;5114270;28;20443;-65
2023/06/22 00:51:51;;;;;;;;;;;24.70;99.90;;;;;;5095946;28;20050;-65
2023/06/22 00:54:24;;;;;;;;;;;24.70;99.90;;;;;;5114377;28;20419;-65
2023/06/22 00:56:54;;;;;;;;;;;24.70;99.80;;;;;;5114216;28;20032;-63
2023/06/22 00:59:20;;;;;;;;;;;24.70;99.50;;;;;;5114353;28;20469;-64
2023/06/22 01:01:45;;;;;;;;;;;24.70;99.30;;;;;;5114301;28;20034;-63
2023/06/22 01:04:11;;;;;;;;;;;24.70;99.30;;;;;;5114164;28;20067;-63
2023/06/22 01:06:41;;;;;;;;;;;24.70;98.70;;;;;;5114006;28;20009;-63
2023/06/22 01:09:12;;;;;;;;;;;24.70;98.70;;;;;;5114107;28;20092;-65
2023/06/22 01:11:39;;;;;;;;;;;24.60;98.50;;;;;;5114047;28;20016;-63
2023/06/22 01:14:12;;;;;;;;;;;24.70;98.30;;;;;;5115189;28;19989;-64
2023/06/22 01:16:40;;;;;;;;;;;24.70;98.00;;;;;;5118288;28;19996;-63
2023/06/22 01:19:16;;;;;;;;;;;24.70;98.00;;;;;;5118025;28;19992;-63
2023/06/22 01:21:42;;;;;;;;;;;24.70;98.20;;;;;;5118316;28;19985;-66
2023/06/22 01:24:08;;;;;;;;;;;24.60;98.40;;;;;;5118438;28;20453;-65
2023/06/22 01:26:48;;;;;;;;;;;24.60;98.70;;;;;;5118080;28;20012;-63
2023/06/22 01:29:15;;;;;;;;;;;24.50;98.80;;;;;;5118147;28;20081;-64
2023/06/22 01:31:42;;;;;;;;;;;24.50;98.90;;;;;;5117981;28;19985;-65
2023/06/22 01:34:08;;;;;;;;;;;24.50;98.70;;;;;;5117783;28;19992;-66
2023/06/22 01:36:34;;;;;;;;;;;24.60;98.70;;;;;;5117957;28;19989;-63
2023/06/22 01:39:00;;;;;;;;;;;24.40;99.30;;;;;;5118112;28;19988;-64
2023/06/22 01:41:27;;;;;;;;;;;24.20;99.90;;;;;;5117777;28;20004;-66
2023/06/22 01:43:54;;;;;;;;;;;24.10;99.90;;;;;;5117870;28;20385;-65
2023/06/22 01:46:20;;;;;;;;;;;23.90;99.90;;;;;;5117380;28;20020;-65
2023/06/22 01:48:46;;;;;;;;;;;23.70;99.90;;;;;;5117652;28;20324;-63
2023/06/22 01:51:12;;;;;;;;;;;23.40;99.90;;;;;;5117720;28;20034;-64
2023/06/22 01:53:37;;;;;;;;;;;23.20;99.90;;;;;;5117537;28;20458;-64
2023/06/22 01:56:03;;;;;;;;;;;23.20;99.90;;;;;;5117593;28;20532;-64
2023/06/22 01:58:29;;;;;;;;;;;23.10;99.90;;;;;;5117511;28;20351;-64
2023/06/22 02:01:04;;;;;;;;;;;23.00;99.90;;;;;;5117512;28;19989;-63
2023/06/22 02:03:41;;;;;;;;;;;23.00;99.90;;;;;;5117217;28;19990;-63
2023/06/22 02:06:10;;;;;;;;;;;23.10;99.90;;;;;;5117332;28;20016;-65
2023/06/22 02:08:41;;;;;;;;;;;23.20;99.90;;;;;;5117262;28;20006;-64
2023/06/22 02:11:08;;;;;;;;;;;23.30;99.90;;;;;;5117488;28;19988;-65
2023/06/22 02:13:33;;;;;;;;;;;23.30;99.90;;;;;;5117324;28;19992;-64
2023/06/22 02:16:00;;;;;;;;;;;23.50;99.90;;;;;;5117100;28;19985;-65
2023/06/22 02:18:25;;;;;;;;;;;23.50;99.90;;;;;;5117050;28;19989;-63
2023/06/22 02:20:51;;;;;;;;;;;23.60;99.90;;;;;;5117162;28;19985;-65
2023/06/22 02:23:16;;;;;;;;;;;23.70;99.90;;;;;;5116947;28;19992;-63
2023/06/22 02:25:44;;;;;;;;;;;23.80;99.90;;;;;;5115880;28;19988;-63
2023/06/22 02:28:09;;;;;;;;;;;23.80;99.90;;;;;;5117048;28;19984;-65
2023/06/22 02:30:35;;;;;;;;;;;23.90;99.90;;;;;;5116785;28;19985;-63
2023/06/22 02:33:01;;;;;;;;;;;23.90;99.90;;;;;;5116677;28;20079;-65
2023/06/22 02:35:31;;;;;;;;;;;24.00;99.90;;;;;;5116873;28;19992;-65
2023/06/22 02:37:57;;;;;;;;;;;23.90;99.90;;;;;;5116952;28;20094;-65
2023/06/22 02:40:23;;;;;;;;;;;23.90;99.90;;;;;;5098488;28;20426;-65
2023/06/22 02:42:48;;;;;;;;;;;23.80;99.90;;;;;;5116901;28;20095;-63
2023/06/22 02:45:14;;;;;;;;;;;23.90;99.90;;;;;;5116382;28;20505;-64
2023/06/22 02:47:39;;;;;;;;;;;23.90;99.90;;;;;;5116337;28;20462;-64
2023/06/22 02:50:05;;;;;;;;;;;23.90;99.90;;;;;;5116488;28;19992;-63
2023/06/22 02:52:31;;;;;;;;;;;24.00;99.90;;;;;;5116582;28;20451;-63
2023/06/22 02:54:56;;;;;;;;;;;24.00;99.90;;;;;;5116312;28;19984;-65
2023/06/22 02:57:22;;;;;;;;;;;23.90;99.90;;;;;;5116658;28;19988;-65
2023/06/22 02:59:47;;;;;;;;;;;24.00;99.90;;;;;;5116318;28;19988;-65
2023/06/22 03:02:13;;;;;;;;;;;23.90;99.90;;;;;;5116087;28;19991;-63
2023/06/22 03:04:38;;;;;;;;;;;23.80;99.90;;;;;;5116509;28;19996;-64
2023/06/22 03:07:04;;;;;;;;;;;23.80;99.90;;;;;;5116445;28;20020;-65
2023/06/22 03:09:30;;;;;;;;;;;23.90;99.90;;;;;;5116068;28;19984;-64
2023/06/22 03:11:56;;;;;;;;;;;23.80;99.90;;;;;;5116147;28;20038;-64
2023/06/22 03:14:21;;;;;;;;;;;23.90;99.90;;;;;;5116103;28;20010;-66
2023/06/22 03:16:47;;;;;;;;;;;23.80;99.90;;;;;;5116118;28;19988;-64
2023/06/22 03:19:13;;;;;;;;;;;23.80;99.90;;;;;;5116000;28;19995;-63
2023/06/22 03:21:39;;;;;;;;;;;23.70;99.90;;;;;;5115959;28;19992;-63
2023/06/22 03:24:05;;;;;;;;;;;23.60;99.90;;;;;;5115896;28;20429;-65
2023/06/22 03:26:31;;;;;;;;;;;23.30;99.90;;;;;;5115961;28;20008;-65
2023/06/22 03:28:56;;;;;;;;;;;23.30;99.90;;;;;;5115791;28;20382;-63
2023/06/22 03:31:22;;;;;;;;;;;23.40;99.90;;;;;;5115574;28;20045;-65
2023/06/22 03:33:51;;;;;;;;;;;23.50;99.90;;;;;;5115899;28;19989;-63
2023/06/22 03:36:20;;;;;;;;;;;23.60;99.90;;;;;;5115736;28;19991;-64
2023/06/22 03:38:46;;;;;;;;;;;23.70;99.90;;;;;;5115438;28;20196;-64
2023/06/22 03:41:12;;;;;;;;;;;23.80;99.90;;;;;;5115410;28;20044;-64
2023/06/22 03:43:37;;;;;;;;;;;23.80;99.90;;;;;;5115575;28;20036;-64
2023/06/22 03:46:03;;;;;;;;;;;23.70;99.90;;;;;;5115068;28;20112;-64
2023/06/22 03:48:28;;;;;;;;;;;23.50;99.90;;;;;;5115360;28;20084;-62
2023/06/22 03:50:54;;;;;;;;;;;23.50;99.90;;;;;;5115572;28;20102;-63
2023/06/22 03:53:19;;;;;;;;;;;23.60;99.90;;;;;;5115461;28;20038;-65
2023/06/22 03:55:50;;;;;;;;;;;23.60;99.90;;;;;;5115179;28;19984;-63
2023/06/22 03:58:16;;;;;;;;;;;23.60;99.90;;;;;;5115434;28;19995;-63
2023/06/22 04:00:41;;;;;;;;;;;23.60;99.90;;;;;;5114956;28;20433;-63
2023/06/22 04:03:07;;;;;;;;;;;23.80;99.90;;;;;;5115023;28;19989;-66
2023/06/22 04:05:33;;;;;;;;;;;23.80;99.90;;;;;;5115320;28;19989;-65
2023/06/22 04:07:58;;;;;;;;;;;24.00;99.90;;;;;;5114909;28;20015;-64
2023/06/22 04:10:24;;;;;;;;;;;24.00;99.90;;;;;;5115005;28;20415;-64
2023/06/22 04:12:49;;;;;;;;;;;24.10;99.90;;;;;;5114699;28;20083;-63
2023/06/22 04:15:15;;;;;;;;;;;24.10;99.90;;;;;;5114765;28;19989;-65
2023/06/22 04:17:40;;;;;;;;;;;24.20;99.90;;;;;;5114919;28;20036;-65
2023/06/22 04:20:06;;;;;;;;;;;24.20;99.90;;;;;;5114649;28;19995;-64
2023/06/22 04:22:32;;;;;;;;;;;24.30;99.90;;;;;;5114900;28;19992;-63
2023/06/22 04:24:58;;;;;;;;;;;24.30;99.90;;;;;;5114831;28;19984;-65
2023/06/22 04:27:23;;;;;;;;;;;24.40;99.90;;;;;;5114325;28;20009;-63
2023/06/22 04:29:49;;;;;;;;;;;24.40;99.90;;;;;;5114671;28;20087;-64
2023/06/22 04:32:15;;;;;;;;;;;24.50;99.90;;;;;;5114606;28;20042;-62
2023/06/22 04:34:40;;;;;;;;;;;24.50;99.90;;;;;;5114795;28;19989;-65
2023/06/22 04:37:06;;;;;;;;;;;24.50;99.90;;;;;;5114449;28;19988;-63
2023/06/22 04:39:32;;;;;;;;;;;24.60;99.90;;;;;;5114602;28;19985;-63
2023/06/22 04:42:00;;;;;;;;;;;24.60;99.90;;;;;;5114242;28;20001;-63
2023/06/22 04:44:26;;;;;;;;;;;24.70;99.90;;;;;;5114360;28;19992;-64
2023/06/22 04:47:03;;;;;;;;;;;24.80;99.90;;;;;;5114168;28;20024;-62
2023/06/22 04:49:32;;;;;;;;;;;24.80;99.90;;;;;;5113632;28;19996;-63
2023/06/22 04:52:05;;;;;;;;;;;24.90;99.90;;;;;;5114463;28;19985;-64
2023/06/22 04:54:33;;;;;;;;;;;24.90;99.90;;;;;;5114290;28;19985;-63
2023/06/22 04:57:00;;;;;;;;;;;25.00;99.90;;;;;;5113983;28;19989;-64
2023/06/22 04:59:27;;;;;;;;;;;25.10;99.90;;;;;;5114220;28;19989;-65
2023/06/22 05:01:57;;;;;;;;;;;25.20;99.90;;;;;;5114067;28;20354;-65
2023/06/22 05:04:24;;;;;;;;;;;25.20;99.50;;;;;;5113820;28;20450;-64
2023/06/22 05:06:50;;;;;;;;;;;25.20;99.60;;;;;;5113719;28;20016;-65
2023/06/22 05:09:17;;;;;;;;;;;25.30;99.40;;;;;;5113974;28;19984;-65
2023/06/22 05:11:43;;;;;;;;;;;25.40;99.20;;;;;;5113585;28;19985;-65
2023/06/22 05:14:09;;;;;;;;;;;25.50;99.00;;;;;;5093152;28;20435;-62
2023/06/22 05:16:34;;;;;;;;;;;25.50;98.70;;;;;;5113893;28;20082;-65
2023/06/22 05:19:02;;;;;;;;;;;25.50;99.30;;;;;;5113628;28;19984;-64
2023/06/22 05:21:28;;;;;;;;;;;25.60;99.00;;;;;;5113861;28;19991;-65
2023/06/22 05:23:54;;;;;;;;;;;25.60;98.90;;;;;;5111543;28;19985;-65
2023/06/22 05:26:20;;;;;;;;;;;25.60;99.10;;;;;;5111103;28;20114;-64
2023/06/22 05:28:46;;;;;;;;;;;25.70;99.20;;;;;;5112333;28;20447;-65
2023/06/22 05:31:13;;;;;;;;;;;25.80;99.10;;;;;;5111249;28;19995;-65
2023/06/22 05:33:39;;;;;;;;;;;25.90;99.10;;;;;;5106715;28;20001;-63
2023/06/22 05:36:05;;;;;;;;;;;25.90;98.70;;;;;;5091448;28;19995;-65
2023/06/22 05:38:30;;;;;;;;;;;25.90;98.80;;;;;;5091826;28;19985;-66
2023/06/22 05:40:56;;;;;;;;;;;25.90;99.10;;;;;;5091352;28;20085;-63
2023/06/22 05:43:22;;;;;;;;;;;26.00;98.90;;;;;;5090499;28;19992;-65
2023/06/22 05:45:47;;;;;;;;;;;26.10;98.70;;;;;;5089768;28;20021;-63
2023/06/22 05:48:13;;;;;;;;;;;26.20;98.70;;;;;;5091261;28;20034;-63
2023/06/22 05:50:38;;;;;;;;;;;26.30;98.30;;;;;;5091641;28;19985;-63
2023/06/22 05:53:04;;;;;;;;;;;26.40;97.90;;;;;;5092063;28;20340;-65
2023/06/22 05:55:29;;;;;;;;;;;26.50;97.30;;;;;;5091892;28;20038;-63
2023/06/22 05:57:55;;;;;;;;;;;26.50;97.10;;;;;;5091654;28;20465;-64
2023/06/22 06:00:21;;;;;;;;;;;26.60;97.10;;;;;;5094667;28;19985;-65
2023/06/22 06:02:49;;;;;;;;;;;26.70;96.60;;;;;;5097024;28;20034;-65
2023/06/22 06:05:14;;;;;;;;;;;26.60;96.50;;;;;;5096861;28;19988;-63
2023/06/22 06:07:40;;;;;;;;;;;26.70;97.00;;;;;;5096994;28;20005;-62
2023/06/22 06:10:06;;;;;;;;;;;26.80;96.40;;;;;;5096675;28;19989;-63
2023/06/22 06:12:32;;;;;;;;;;;27.00;96.10;;;;;;5096669;28;20011;-62
2023/06/22 06:14:58;;;;;;;;;;;27.20;96.20;;;;;;5096716;28;20414;-63
2023/06/22 06:17:23;;;;;;;;;;;27.40;95.70;;;;;;5096695;28;20069;-65
2023/06/22 06:19:49;;;;;;;;;;;27.50;95.50;;;;;;5096070;28;19989;-64
2023/06/22 06:22:14;;;;;;;;;;;27.70;95.70;;;;;;5094914;28;19989;-64
2023/06/22 06:24:40;;;;;;;;;;;27.80;95.70;;;;;;5096027;28;20439;-65
2023/06/22 06:27:06;;;;;;;;;;;27.90;94.60;;;;;;5094980;28;20009;-64
2023/06/22 06:29:31;;;;;;;;;;;28.00;95.10;;;;;;5096394;28;19997;-62
2023/06/22 06:31:57;;;;;;;;;;;28.10;94.90;;;;;;5096601;28;19994;-63
2023/06/22 06:34:23;;;;;;;;;;;28.20;93.70;;;;;;5096197;28;19985;-64
2023/06/22 06:36:48;;;;;;;;;;;28.20;93.60;;;;;;5094683;28;19996;-65
2023/06/22 06:39:15;;;;;;;;;;;28.30;93.90;;;;;;5094808;28;20459;-65
2023/06/22 06:41:41;;;;;;;;;;;28.50;93.20;;;;;;5096161;28;20096;-63
2023/06/22 06:44:07;;;;;;;;;;;28.50;93.00;;;;;;5095834;28;20050;-63
2023/06/22 06:46:32;;;;;;;;;;;28.60;92.80;;;;;;5095984;28;20025;-64
2023/06/22 06:48:58;;;;;;;;;;;28.80;93.30;;;;;;5096037;28;19992;-64
2023/06/22 06:51:23;;;;;;;;;;;28.80;92.40;;;;;;5095916;28;20018;-63
2023/06/22 06:53:49;;;;;;;;;;;28.90;92.40;;;;;;5095574;28;19993;-64
2023/06/22 06:56:15;;;;;;;;;;;29.10;91.60;;;;;;5095777;28;19996;-65
2023/06/22 06:58:42;;;;;;;;;;;29.20;92.00;;;;;;5096273;28;19992;-62
2023/06/22 07:01:07;;;;;;;;;;;29.40;91.50;;;;;;5114176;28;19998;-63
2023/06/22 07:03:33;;;;;;;;;;;29.50;90.50;;;;;;5115150;28;20076;-62
2023/06/22 07:05:59;;;;;;;;;;;29.60;90.10;;;;;;5109534;28;20370;-63
2023/06/22 07:08:25;;;;;;;;;;;29.70;88.70;;;;;;5111727;28;19989;-65
2023/06/22 07:10:51;;;;;;;;;;;29.70;89.40;;;;;;5115232;28;20028;-64
2023/06/22 07:13:17;;;;;;;;;;;29.80;89.40;;;;;;5114733;28;19992;-65
2023/06/22 07:15:43;;;;;;;;;;;29.80;86.70;;;;;;5114723;28;19984;-65
2023/06/22 07:18:08;;;;;;;;;;;29.90;87.00;;;;;;5114432;28;19989;-66
2023/06/22 07:20:34;;;;;;;;;;;29.90;87.90;;;;;;5114774;28;20505;-63
2023/06/22 07:23:00;;;;;;;;;;;30.00;87.20;;;;;;5115588;28;19985;-66
2023/06/22 07:25:25;;;;;;;;;;;30.20;86.50;;;;;;5115820;28;20507;-64
2023/06/22 07:27:58;;;;;;;;;;;30.20;85.30;;;;;;5096497;28;20020;-66
2023/06/22 07:30:24;;;;;;;;;;;30.30;87.00;;;;;;5114241;28;20071;-66
2023/06/22 07:32:49;;;;;;;;;;;30.50;87.80;;;;;;5114950;28;20486;-64
2023/06/22 07:35:16;;;;;;;;;;;30.70;85.90;;;;;;5114333;28;20465;-65
2023/06/22 07:37:42;;;;;;;;;;;31.00;82.90;;;;;;5114400;28;20075;-63
2023/06/22 07:40:08;;;;;;;;;;;31.20;82.90;;;;;;5114346;28;20079;-65
2023/06/22 07:42:33;;;;;;;;;;;31.40;83.80;;;;;;5114752;28;20485;-65
2023/06/22 07:44:59;;;;;;;;;;;31.60;81.60;;;;;;5115240;28;20106;-63
2023/06/22 07:47:27;;;;;;;;;;;31.70;79.30;;;;;;5115482;28;20076;-62
2023/06/22 07:49:55;;;;;;;;;;;31.80;78.80;;;;;;5114164;28;20362;-65
2023/06/22 07:52:21;;;;;;;;;;;33.10;75.80;;;;;;5115173;28;19989;-65
2023/06/22 07:54:46;;;;;;;;;;;34.80;70.70;;;;;;5096832;28;19989;-64
2023/06/22 07:57:12;;;;;;;;;;;36.20;67.90;;;;;;5115234;28;19992;-63
2023/06/22 07:59:38;;;;;;;;;;;37.20;66.30;;;;;;5115623;28;20065;-66
2023/06/22 08:02:04;;;;;;;;;;;38.10;63.20;;;;;;5109939;28;19989;-63
2023/06/22 08:04:31;;;;;;;;;;;38.80;59.90;;;;;;5094406;28;19989;-65
2023/06/22 08:06:57;;;;;;;;;;;39.40;57.90;;;;;;5094661;28;20470;-65
2023/06/22 08:09:23;;;;;;;;;;;39.90;55.60;;;;;;5075312;28;20000;-63
2023/06/22 08:11:49;;;;;;;;;;;40.10;53.30;;;;;;5074160;28;20399;-65
2023/06/22 08:14:14;;;;;;;;;;;40.20;53.80;;;;;;5093779;28;19985;-66
2023/06/22 08:16:41;;;;;;;;;;;40.60;54.30;;;;;;5092396;28;19985;-65
2023/06/22 08:19:06;;;;;;;;;;;41.10;53.10;;;;;;5091572;28;20520;-66
2023/06/22 08:21:32;;;;;;;;;;;41.20;53.10;;;;;;5093258;28;20069;-64
2023/06/22 08:23:58;;;;;;;;;;;41.70;51.60;;;;;;5092730;28;20030;-64
2023/06/22 08:26:23;;;;;;;;;;;42.00;50.10;;;;;;5092488;28;20016;-65
2023/06/22 08:28:49;;;;;;;;;;;41.70;50.20;;;;;;5092922;28;20456;-66
2023/06/22 08:31:15;;;;;;;;;;;41.70;49.10;;;;;;5111099;28;20446;-65
2023/06/22 08:33:43;;;;;;;;;;;41.60;47.60;;;;;;5113527;28;19992;-65
2023/06/22 08:36:10;;;;;;;;;;;41.10;48.00;;;;;;5106814;28;20036;-65
2023/06/22 08:38:36;;;;;;;;;;;41.20;48.80;;;;;;5104904;28;20048;-64
2023/06/22 08:41:02;;;;;;;;;;;41.40;47.40;;;;;;5113718;28;20087;-66
2023/06/22 08:43:28;;;;;;;;;;;41.40;48.30;;;;;;5095458;28;19989;-64
2023/06/22 08:45:53;;;;;;;;;;;41.60;47.60;;;;;;5114360;28;20150;-65
2023/06/22 08:48:19;;;;;;;;;;;41.80;48.10;;;;;;5114094;28;20039;-63
2023/06/22 08:50:44;;;;;;;;;;;42.10;49.30;;;;;;5113706;28;19996;-65
2023/06/22 08:53:12;;;;;;;;;;;41.90;48.70;;;;;;5113885;28;20328;-65
2023/06/22 08:55:38;;;;;;;;;;;41.90;48.50;;;;;;5114235;28;20454;-65
2023/06/22 08:58:04;;;;;;;;;;;42.10;48.00;;;;;;5114284;28;19984;-65
2023/06/22 09:00:34;;;;;;;;;;;42.00;47.00;;;;;;5114103;28;20047;-65
2023/06/22 09:03:00;;;;;;;;;;;41.70;48.00;;;;;;5114161;28;20014;-63
2023/06/22 09:05:28;;;;;;;;;;;41.40;47.30;;;;;;5114115;28;20416;-65
2023/06/22 09:07:58;;;;;;;;;;;41.50;47.10;;;;;;5113566;28;20059;-64
2023/06/22 09:10:24;;;;;;;;;;;41.50;47.10;;;;;;5114252;28;20000;-64
2023/06/22 09:12:50;;;;;;;;;;;41.50;46.70;;;;;;5113967;28;20043;-66
2023/06/22 09:15:15;;;;;;;;;;;41.70;46.10;;;;;;5110999;28;20024;-66
2023/06/22 09:17:41;;;;;;;;;;;41.80;45.80;;;;;;5099963;28;19989;-65
2023/06/22 09:20:09;;;;;;;;;;;41.50;46.80;;;;;;5102557;28;19996;-64
2023/06/22 09:22:35;;;;;;;;;;;41.50;47.50;;;;;;5092966;28;19992;-66
2023/06/22 09:25:01;;;;;;;;;;;41.70;47.30;;;;;;5091510;28;20030;-65
2023/06/22 09:27:26;;;;;;;;;;;41.70;45.40;;;;;;5086283;28;20016;-65
2023/06/22 09:29:52;;;;;;;;;;;41.90;45.10;;;;;;5090925;28;20000;-66
2023/06/22 09:32:18;;;;;;;;;;;42.00;44.90;;;;;;5112468;28;19985;-66
2023/06/22 09:34:43;;;;;;;;;;;42.10;45.60;;;;;;5111686;28;19985;-64
2023/06/22 09:37:09;;;;;;;;;;;41.80;45.60;;;;;;5115394;28;20075;-63
2023/06/22 09:39:36;;;;;;;;;;;41.60;47.90;;;;;;5117316;28;19988;-65
2023/06/22 09:42:01;;;;;;;;;;;41.40;46.20;;;;;;5117972;28;20007;-63
2023/06/22 09:44:27;;;;;;;;;;;41.40;45.90;;;;;;5117862;28;20075;-65
2023/06/22 09:46:52;;;;;;;;;;;41.60;45.80;;;;;;5117224;28;20521;-63
2023/06/22 09:49:18;;;;;;;;;;;41.40;45.20;;;;;;5115894;28;19991;-63
2023/06/22 09:51:43;;;;;;;;;;;41.20;45.70;;;;;;5115629;28;19989;-63
2023/06/22 09:54:09;;;;;;;;;;;41.30;46.50;;;;;;5116170;28;19993;-62
2023/06/22 09:56:34;;;;;;;;;;;41.40;46.80;;;;;;5115582;28;19992;-65
2023/06/22 09:59:00;;;;;;;;;;;41.40;46.10;;;;;;5116648;28;19988;-64
2023/06/22 10:01:25;;;;;;;;;;;41.50;45.60;;;;;;5128197;27;20024;-63
2023/06/22 10:03:56;;;;;;;;;;;41.50;46.60;;;;;;5137021;27;19984;-63
2023/06/22 10:06:22;;;;;;;;;;;41.70;46.00;;;;;;5117861;27;20016;-62
2023/06/22 10:08:48;;;;;;;;;;;41.70;45.10;;;;;;5135359;27;19988;-64
2023/06/22 10:11:14;;;;;;;;;;;41.50;47.00;;;;;;5136440;27;20411;-62
2023/06/22 10:13:39;;;;;;;;;;;41.50;45.50;;;;;;5136998;27;20038;-62
2023/06/22 10:16:05;;;;;;;;;;;41.50;46.00;;;;;;5136745;27;20407;-62
2023/06/22 10:18:30;;;;;;;;;;;41.40;47.10;;;;;;5136376;27;19992;-62
2023/06/22 10:20:56;;;;;;;;;;;41.40;46.80;;;;;;5136529;27;19988;-62
2023/06/22 10:23:22;;;;;;;;;;;41.40;45.30;;;;;;5136915;27;20114;-65
2023/06/22 10:25:47;;;;;;;;;;;41.50;47.40;;;;;;5136714;27;19985;-64
2023/06/22 10:28:13;;;;;;;;;;;41.50;45.20;;;;;;5136964;27;20466;-64
2023/06/22 10:30:41;;;;;;;;;;;41.40;44.90;;;;;;5135488;27;19989;-62
2023/06/22 10:33:10;;;;;;;;;;;41.40;47.10;;;;;;5136006;27;20079;-63
2023/06/22 10:35:39;;;;;;;;;;;41.40;45.10;;;;;;5137524;27;20472;-65
2023/06/22 10:38:04;;;;;;;;;;;41.50;46.70;;;;;;5137206;27;20032;-63
2023/06/22 10:40:30;;;;;;;;;;;41.70;45.20;;;;;;5136575;27;20364;-63
2023/06/22 10:42:56;;;;;;;;;;;42.00;44.10;;;;;;5103878;28;20524;-63
2023/06/22 10:45:21;;;;;;;;;;;42.00;43.80;;;;;;5102618;28;20120;-64
2023/06/22 10:47:47;;;;;;;;;;;42.00;44.00;;;;;;5115202;27;20009;-64
2023/06/22 10:50:13;;;;;;;;;;;41.70;44.10;;;;;;5115096;28;20534;-64
2023/06/22 10:52:39;;;;;;;;;;;41.50;45.80;;;;;;5115166;28;19989;-65
2023/06/22 10:55:05;;;;;;;;;;;41.50;45.60;;;;;;5115312;28;20000;-65
2023/06/22 10:57:30;;;;;;;;;;;41.30;44.20;;;;;;5115001;28;19984;-65
2023/06/22 10:59:56;;;;;;;;;;;41.40;47.10;;;;;;5113392;28;20433;-64
2023/06/22 11:02:21;;;;;;;;;;;41.50;45.50;;;;;;5114912;28;19985;-64
2023/06/22 11:04:47;;;;;;;;;;;41.60;45.30;;;;;;5114472;28;20074;-64
2023/06/22 11:07:13;;;;;;;;;;;41.80;44.60;;;;;;5114399;28;20016;-65
2023/06/22 11:09:39;;;;;;;;;;;42.10;43.50;;;;;;5115478;28;20455;-63
2023/06/22 11:12:05;;;;;;;;;;;42.10;44.00;;;;;;5115393;28;19993;-63
2023/06/22 11:14:30;;;;;;;;;;;42.00;43.20;;;;;;5115275;28;19985;-64
2023/06/22 11:16:56;;;;;;;;;;;42.00;45.90;;;;;;5115220;28;20007;-64
2023/06/22 11:19:22;;;;;;;;;;;42.00;43.60;;;;;;5115809;28;19985;-65
2023/06/22 11:21:47;;;;;;;;;;;41.90;43.30;;;;;;5115596;28;20523;-65
2023/06/22 11:24:13;;;;;;;;;;;41.70;43.70;;;;;;5115713;28;19985;-64
2023/06/22 11:26:38;;;;;;;;;;;41.70;44.10;;;;;;5115791;28;20008;-65
2023/06/22 11:29:05;;;;;;;;;;;41.80;44.20;;;;;;5115570;28;19993;-63
2023/06/22 11:31:31;;;;;;;;;;;42.00;43.20;;;;;;5097996;28;20047;-65
2023/06/22 11:33:57;;;;;;;;;;;42.10;42.80;;;;;;5115966;28;20034;-64
2023/06/22 11:36:22;;;;;;;;;;;42.30;41.70;;;;;;5115745;28;20447;-64
2023/06/22 11:38:48;;;;;;;;;;;42.30;41.30;;;;;;5115582;28;20404;-64
2023/06/22 11:41:13;;;;;;;;;;;42.20;40.40;;;;;;5115550;28;19996;-65
2023/06/22 11:43:39;;;;;;;;;;;42.10;42.70;;;;;;5115586;28;19988;-64
2023/06/22 11:46:04;;;;;;;;;;;42.30;39.50;;;;;;5115241;28;20025;-65
2023/06/22 11:48:30;;;;;;;;;;;42.10;40.00;;;;;;5115358;28;20442;-66
2023/06/22 11:50:56;;;;;;;;;;;42.20;42.90;;;;;;5115636;28;20033;-65
2023/06/22 11:53:21;;;;;;;;;;;42.40;41.30;;;;;;5115426;28;19992;-65
2023/06/22 11:55:47;;;;;;;;;;;42.50;40.00;;;;;;5115261;28;19989;-65
2023/06/22 11:58:13;;;;;;;;;;;42.50;39.00;;;;;;5114983;28;20075;-65
2023/06/22 12:00:38;;;;;;;;;;;42.50;39.20;;;;;;5115422;28;19988;-64
2023/06/22 12:03:04;;;;;;;;;;;42.60;39.50;;;;;;5115073;28;20437;-65
2023/06/22 12:05:29;;;;;;;;;;;42.60;38.40;;;;;;5115233;28;19984;-65
2023/06/22 12:07:55;;;;;;;;;;;42.70;39.50;;;;;;5115105;28;20455;-64
2023/06/22 12:10:24;;;;;;;;;;;42.60;41.30;;;;;;5115061;28;19992;-64
2023/06/22 12:12:50;;;;;;;;;;;42.30;40.50;;;;;;5114812;28;19991;-63
2023/06/22 12:15:16;;;;;;;;;;;42.10;40.60;;;;;;5114957;28;20032;-66
2023/06/22 12:17:41;;;;;;;;;;;42.10;40.60;;;;;;5114926;28;19985;-65
2023/06/22 12:20:07;;;;;;;;;;;42.40;40.20;;;;;;5114806;28;19985;-65
2023/06/22 12:22:33;;;;;;;;;;;42.60;39.90;;;;;;5114947;28;20439;-64
2023/06/22 12:24:58;;;;;;;;;;;42.50;39.40;;;;;;5114731;28;19992;-65
2023/06/22 12:27:24;;;;;;;;;;;42.00;41.70;;;;;;5114390;28;20015;-63
2023/06/22 12:29:50;;;;;;;;;;;41.80;40.10;;;;;;5114976;28;19999;-63
2023/06/22 12:32:15;;;;;;;;;;;41.70;39.90;;;;;;5114658;28;20362;-65
2023/06/22 12:34:42;;;;;;;;;;;41.80;38.60;;;;;;5114521;28;20080;-65
2023/06/22 12:37:08;;;;;;;;;;;41.90;39.20;;;;;;5114607;28;19984;-65
2023/06/22 12:39:33;;;;;;;;;;;42.00;37.10;;;;;;5114484;28;19996;-65
2023/06/22 12:41:59;;;;;;;;;;;41.90;39.90;;;;;;5114186;28;20000;-65
2023/06/22 12:44:24;;;;;;;;;;;42.00;38.80;;;;;;5114634;28;19988;-65
2023/06/22 12:46:50;;;;;;;;;;;42.20;40.50;;;;;;5114191;28;20024;-65
2023/06/22 12:49:15;;;;;;;;;;;42.30;39.70;;;;;;5114386;28;19984;-65
2023/06/22 12:51:44;;;;;;;;;;;42.40;40.30;;;;;;5114297;28;20359;-65
2023/06/22 12:54:10;;;;;;;;;;;42.50;39.00;;;;;;5114440;28;19989;-63
2023/06/22 12:56:35;;;;;;;;;;;42.50;40.80;;;;;;5114157;28;20029;-64
2023/06/22 12:59:01;;;;;;;;;;;42.40;40.00;;;;;;5114230;28;19985;-64
2023/06/22 13:01:27;;;;;;;;;;;42.30;39.30;;;;;;5114215;28;20073;-64
2023/06/22 13:03:53;;;;;;;;;;;42.40;39.30;;;;;;5114204;28;20481;-65
2023/06/22 13:06:19;;;;;;;;;;;42.40;37.30;;;;;;5114060;28;20034;-65
2023/06/22 13:08:44;;;;;;;;;;;42.40;39.00;;;;;;5114101;28;19996;-64
2023/06/22 13:11:10;;;;;;;;;;;42.50;38.20;;;;;;5113465;28;20017;-64
2023/06/22 13:13:35;;;;;;;;;;;42.30;39.90;;;;;;5114039;28;19985;-65
2023/06/22 13:16:01;;;;;;;;;;;42.30;40.30;;;;;;5114053;28;20336;-65
2023/06/22 13:18:26;;;;;;;;;;;42.30;39.80;;;;;;5114078;28;20063;-66
2023/06/22 13:20:54;;;;;;;;;;;42.40;40.50;;;;;;5114207;28;19988;-63
2023/06/22 13:23:20;;;;;;;;;;;42.40;40.30;;;;;;5114267;28;20359;-63
2023/06/22 13:25:46;;;;;;;;;;;42.20;40.20;;;;;;5114084;28;19988;-63
2023/06/22 13:28:13;;;;;;;;;;;42.20;41.80;;;;;;5113907;28;20095;-64
2023/06/22 13:30:39;;;;;;;;;;;42.10;40.00;;;;;;5114163;28;19989;-63
2023/06/22 13:33:05;;;;;;;;;;;42.10;40.40;;;;;;5114185;28;19993;-63
2023/06/22 13:35:31;;;;;;;;;;;42.00;40.00;;;;;;5113881;28;19992;-64
2023/06/22 13:37:56;;;;;;;;;;;41.70;38.30;;;;;;5114058;28;20020;-63
2023/06/22 13:40:22;;;;;;;;;;;41.80;39.80;;;;;;5113766;28;19985;-63
2023/06/22 13:42:47;;;;;;;;;;;41.60;40.70;;;;;;5113841;28;20008;-64
2023/06/22 13:45:13;;;;;;;;;;;41.60;37.90;;;;;;5113584;28;20482;-64
2023/06/22 13:47:39;;;;;;;;;;;41.50;40.20;;;;;;5113861;28;20453;-62
2023/06/22 13:50:05;;;;;;;;;;;41.60;39.10;;;;;;5113771;28;20011;-62
2023/06/22 13:52:30;;;;;;;;;;;41.70;40.50;;;;;;5113710;28;20008;-63
2023/06/22 13:54:56;;;;;;;;;;;41.70;41.10;;;;;;5113629;28;20028;-62
2023/06/22 13:57:21;;;;;;;;;;;41.70;39.10;;;;;;5113878;28;19993;-63
2023/06/22 13:59:47;;;;;;;;;;;41.70;40.50;;;;;;5113759;28;19984;-64
2023/06/22 14:02:12;;;;;;;;;;;41.50;39.20;;;;;;5113519;28;19985;-64
2023/06/22 14:04:38;;;;;;;;;;;41.40;39.10;;;;;;5113629;28;19985;-62
2023/06/22 14:07:04;;;;;;;;;;;41.60;40.30;;;;;;5113806;28;20013;-62
2023/06/22 14:09:29;;;;;;;;;;;41.20;38.20;;;;;;5113315;28;20439;-62